Mitchell, SD

5:04 AM CST on December 27, 2014 (GMT -0600)
APRSWXNET Mitchell SD US | Change Station
CLOSE
Current Station
Personal Weather Station
Location: Mitchell, SD
Elevation: 1309 ft
Nearby Weather Stations

Elev 1309 ft 43.73 °N, 98.04 °W | Updated 34 minutes ago

Overcast
Overcast
15 °F
Feels Like 7 °F
N
5
Wind Variable Wind from NNW
Gusts 8.0 mph

Today
High -- | Low -- °F
--% Chance of Precip.
Yesterday
High -- | Low -- °F
Precip. -- in
8:05 AM 5:01 PM
Waxing Crescent, 35% visible
Pressure 30.26 in
Visibility 10.0 miles
Clouds Mostly Cloudy 7500 ft
Overcast 10000 ft
Windchill 7 °F
Dew Point 12 °F
Humidity 86%
Rainfall 0.00 in
Snow Depth Not available.
UV 0 out of 12
Pollen .10 out of 12
Air Quality Not available.
Flu Activity Not available.
METAR KMHE 271053Z AUTO 33010KT 10SM BKN075 OVC100 M10/M12 A3019 RMK AO2 SLP245 T11001122

More Conditions Fewer Conditions

Pressure 30.26 in
Visibility 10.0 miles
Clouds Mostly Cloudy 7500 ft
Overcast 10000 ft
Windchill 7 °F
Dew Point 12 °F
Humidity 86%
Rainfall 0.00 in
Snow Depth Not available.
UV 0 out of 12
Pollen .10 out of 12
Air Quality Not available.
Flu Activity Not available.
METAR KMHE 271053Z AUTO 33010KT 10SM BKN075 OVC100 M10/M12 A3019 RMK AO2 SLP245 T11001122

More Conditions Fewer Conditions

10-Day Weather Forecast

Almanac

Astronomy

Dec. 27, 2014 Rise Set
Actual Time
Civil Twilight
Nautical Twilight
Astronomical Twilight
Moon
Length of Visible Light
Length of Day
Tomorrow will be .
, % of the Moon is Illuminated

Today's Extremes

State Highs State Lows

Community

WunderPhotos

Upload Photos

1,780,878 photos uploaded!

WunderBlogs® & News

Nearby

Air Quality

  Air Quality AQ Index Pollutant
Not available.

Snow Depth

Station Depth Elevation

Earthquake Activity

City Distance Mag. Time & Date
Minimum magnitude displayed is 2.5.

Coastal Water Temperatures

Place Temperature

Nearby Weather Stations